Time;durP1;ratioP1;P1;durP2;ratioP2;P2;SDS_P1;SDS_P2;PMS_P1;PMS_P2;Temp;Humidity;BMP_temperature;BMP_pressure;BME280_temperature;BME280_humidity;BME280_pressure;Samples;Min_cycle;Max_cycle;Signal;HPM_P1;HPM_P2
2022/08/07 00:02:03;;;;;;;19.63;6.80;;;12.70;99.90;;;11.60;98.79;102202.06;5023642;28;20033;-76
2022/08/07 00:04:28;;;;;;;15.63;7.32;;;12.60;99.90;;;11.55;97.88;102193.38;5037831;28;20038;-76
2022/08/07 00:06:54;;;;;;;13.88;7.32;;;12.60;99.90;;;11.50;97.80;102197.00;5023869;28;21193;-76
2022/08/07 00:09:20;;;;;;;12.32;6.72;;;12.60;99.90;;;11.46;98.05;102194.50;5024317;28;20041;-76
2022/08/07 00:11:47;;;;;;;13.10;7.18;;;12.50;99.90;;;11.44;98.26;102196.31;5022465;28;20063;-76
2022/08/07 00:14:15;;;;;;;20.38;7.97;;;12.50;99.90;;;11.41;99.06;102199.06;5024815;28;20080;-76
2022/08/07 00:16:41;;;;;;;16.05;7.03;;;12.50;99.90;;;11.40;99.66;102194.66;5038772;28;20129;-75
2022/08/07 00:19:06;;;;;;;16.50;7.50;;;12.50;99.90;;;11.39;99.69;102192.94;5023041;28;20021;-76
2022/08/07 00:21:32;;;;;;;19.85;8.63;;;12.40;99.90;;;11.37;100.00;102186.84;5021907;28;20058;-76
2022/08/07 00:23:58;;;;;;;15.77;7.93;;;12.40;99.90;;;11.34;100.00;102184.28;5029255;28;20063;-76
2022/08/07 00:26:24;;;;;;;14.45;7.60;;;12.40;99.90;;;11.32;100.00;102180.81;5024590;28;20414;-76
2022/08/07 00:28:50;;;;;;;12.85;7.10;;;12.40;99.90;;;11.28;100.00;102178.28;5019768;28;20039;-76
2022/08/07 00:31:15;;;;;;;16.85;7.93;;;12.30;99.90;;;11.25;100.00;102181.00;5029229;28;20547;-76
2022/08/07 00:33:41;;;;;;;;;;;12.30;99.90;;;11.17;99.94;102179.47;5004721;28;20387;-76
2022/08/07 00:36:08;;;;;;;22.67;9.02;;;12.20;99.90;;;11.09;100.00;102179.66;5025021;28;19974;-76
2022/08/07 00:38:35;;;;;;;17.80;8.50;;;12.20;99.90;;;11.06;100.00;102185.00;5019908;28;20044;-76
2022/08/07 00:41:03;;;;;;;16.85;8.27;;;12.20;99.90;;;11.04;100.00;102176.28;5005734;28;20077;-76
2022/08/07 00:43:29;;;;;;;24.33;8.57;;;12.10;99.90;;;11.02;100.00;102178.94;5021863;28;20503;-76
2022/08/07 00:45:55;;;;;;;14.93;8.25;;;12.10;99.90;;;11.02;100.00;102181.56;5021523;28;20033;-76
2022/08/07 00:48:20;;;;;;;;;;;12.10;99.90;;;10.94;100.00;102177.41;5020931;28;20473;-75
2022/08/07 00:50:46;;;;;;;15.35;7.75;;;12.00;99.90;;;10.92;100.00;102181.84;5005505;28;19910;-75
2022/08/07 00:53:12;;;;;;;;;;;12.00;99.90;;;10.87;100.00;102181.97;5023692;28;20069;-76
2022/08/07 00:55:38;;;;;;;14.70;7.53;;;12.00;99.90;;;10.82;100.00;102178.56;5021154;28;19939;-76
2022/08/07 00:58:04;;;;;;;13.68;6.60;;;11.90;99.90;;;10.82;100.00;102179.44;5020962;28;20034;-76
2022/08/07 01:00:30;;;;;;;15.55;7.57;;;11.90;99.90;;;10.79;100.00;102179.50;5021345;28;20038;-76
2022/08/07 01:02:56;;;;;;;23.48;7.55;;;11.90;99.90;;;10.78;100.00;102182.19;5023542;28;20039;-76
2022/08/07 01:05:27;;;;;;;14.98;7.75;;;11.90;99.90;;;10.78;100.00;102179.56;5001275;28;20023;-76
2022/08/07 01:07:53;;;;;;;11.95;7.20;;;11.90;99.90;;;10.76;100.00;102184.84;5033665;28;20402;-76
2022/08/07 01:10:19;;;;;;;13.88;7.32;;;11.90;99.90;;;10.77;100.00;102185.72;5019613;28;20033;-76
2022/08/07 01:12:46;;;;;;;11.70;6.32;;;11.80;99.90;;;10.73;100.00;102181.44;5004117;28;20040;-76
2022/08/07 01:15:13;;;;;;;17.35;8.00;;;11.80;99.90;;;10.71;100.00;102181.44;5019627;28;20036;-76
2022/08/07 01:17:38;;;;;;;12.40;7.25;;;11.80;99.90;;;10.67;100.00;102183.31;5022515;28;20041;-76
2022/08/07 01:20:11;;;;;;;14.48;7.90;;;11.70;99.90;;;10.65;100.00;102181.63;5021346;28;20067;-75
2022/08/07 01:22:39;;;;;;;13.40;7.68;;;11.70;99.90;;;10.62;100.00;102182.53;5035415;28;20030;-76
2022/08/07 01:25:09;;;;;;;17.45;7.60;;;11.70;99.90;;;10.61;100.00;102177.31;5021874;28;20036;-76
2022/08/07 01:27:35;;;;;;;15.95;7.75;;;11.70;99.90;;;10.59;100.00;102179.13;5020777;28;20061;-76
2022/08/07 01:30:02;;;;;;;10.77;6.88;;;11.70;99.90;;;10.58;100.00;102178.28;5019176;28;20071;-76
2022/08/07 01:32:28;;;;;;;21.25;7.28;;;11.70;99.90;;;10.57;100.00;102178.31;5018839;28;20449;-76
2022/08/07 01:34:55;;;;;;;24.17;8.63;;;11.70;99.90;;;10.56;100.00;102182.72;5019970;28;20037;-76
2022/08/07 01:37:21;;;;;;;21.77;7.68;;;11.60;99.90;;;10.55;100.00;102180.09;5024538;28;20037;-76
2022/08/07 01:39:47;;;;;;;12.70;6.93;;;11.60;99.90;;;10.55;100.00;102185.38;5003148;28;20049;-76
2022/08/07 01:42:15;;;;;;;13.23;7.13;;;11.60;99.90;;;10.53;100.00;102188.03;5003400;28;20029;-76
2022/08/07 01:44:41;;;;;;;18.95;9.00;;;11.60;99.90;;;10.48;100.00;102183.78;5034662;28;20034;-76
2022/08/07 01:47:07;;;;;;;14.95;8.35;;;11.60;99.90;;;10.48;100.00;102183.78;5003936;28;20056;-75
2022/08/07 01:49:35;;;;;;;18.58;9.02;;;11.60;99.90;;;10.49;100.00;102183.72;5021742;28;20038;-76
2022/08/07 01:52:04;;;;;;;13.93;8.02;;;11.60;99.90;;;10.48;100.00;102176.75;5021143;28;20072;-76
2022/08/07 01:54:36;;;;;;;15.10;7.13;;;11.60;99.90;;;10.48;100.00;102183.78;5022124;28;20064;-76
2022/08/07 01:57:22;;;;;;;13.73;7.45;;;11.60;99.90;;;10.44;100.00;102181.22;5000743;28;20805;-76
2022/08/07 02:00:05;;;;;;;15.25;7.65;;;11.50;99.90;;;10.39;100.00;102180.47;5018910;28;20522;-76
2022/08/07 02:05:16;;;;;;;8.77;5.43;;;11.40;99.90;;;10.31;100.00;102186.78;5066290;28;20508;-80
2022/08/07 02:07:51;;;;;;;9.15;4.95;;;11.40;99.90;;;10.27;100.00;102192.06;5028228;28;20049;-78
2022/08/07 02:10:21;;;;;;;12.23;5.50;;;11.40;99.90;;;10.24;100.00;102194.78;5068338;28;20376;-78
2022/08/07 02:12:49;;;;;;;13.93;5.70;;;11.30;99.90;;;10.20;100.00;102194.91;5059702;28;20025;-80
2022/08/07 02:15:23;;;;;;;15.52;7.07;;;11.30;99.90;;;10.17;100.00;102189.69;5028225;28;20112;-78
2022/08/07 02:17:52;;;;;;;14.45;6.63;;;11.30;99.90;;;10.15;100.00;102202.00;5025282;28;20120;-78
2022/08/07 02:20:22;;;;;;;17.98;6.30;;;11.30;99.90;;;10.11;100.00;102193.31;5030605;28;20036;-80
2022/08/07 02:22:56;;;;;;;11.55;7.13;;;11.20;99.90;;;10.11;100.00;102184.53;5027681;28;20080;-79
2022/08/07 02:25:26;;;;;;;10.85;5.80;;;11.20;99.90;;;10.10;100.00;102193.34;5011919;28;20535;-78
2022/08/07 02:27:53;;;;;;;12.48;6.88;;;11.20;99.90;;;10.08;100.00;102193.38;5024371;28;20061;-78
2022/08/07 02:30:20;;;;;;;11.88;6.40;;;11.20;99.90;;;10.06;100.00;102193.44;5008921;28;20056;-79
2022/08/07 02:32:48;;;;;;;16.17;6.20;;;11.20;99.90;;;10.05;100.00;102194.31;5012607;28;20459;-79
2022/08/07 02:35:21;;;;;;;15.05;8.18;;;11.20;99.90;;;10.05;100.00;102182.94;5027375;28;20029;-78
2022/08/07 02:37:49;;;;;;;19.55;7.68;;;11.10;99.90;;;10.03;100.00;102177.69;5012093;28;20017;-78
2022/08/07 02:40:15;;;;;;;19.60;8.40;;;11.20;99.90;;;10.02;100.00;102175.97;5024814;28;20033;-80
2022/08/07 02:42:50;;;;;;;19.65;8.73;;;11.10;99.90;;;10.06;100.00;102185.53;5025150;28;20086;-78
2022/08/07 02:45:18;;;;;;;18.67;7.93;;;11.20;99.90;;;10.05;100.00;102193.44;5047401;28;20551;-80
2022/08/07 02:47:44;;;;;;;19.90;8.35;;;11.20;99.90;;;10.05;100.00;102188.19;5045755;28;20064;-79
2022/08/07 02:50:13;;;;;;;14.57;8.23;;;11.10;99.90;;;10.02;100.00;102191.75;5043973;28;20473;-78
2022/08/07 02:53:00;;;;;;;21.60;9.65;;;11.10;99.90;;;10.01;100.00;102183.88;5026628;28;20523;-78
2022/08/07 02:55:36;;;;;;;15.55;7.88;;;11.10;99.90;;;9.98;100.00;102186.59;5025867;28;20022;-80
2022/08/07 02:58:06;;;;;;;16.35;9.00;;;11.10;99.90;;;9.94;100.00;102190.19;5030175;28;20034;-79
2022/08/07 03:00:39;;;;;;;17.77;8.52;;;11.10;99.90;;;9.92;100.00;102184.09;5008950;28;20034;-78
2022/08/07 03:03:08;;;;;;;19.55;8.40;;;11.10;99.90;;;9.92;100.00;102178.81;5025334;28;20039;-79
2022/08/07 03:05:35;;;;;;;16.25;8.68;;;11.00;99.90;;;9.91;100.00;102183.19;5004796;28;20484;-79
2022/08/07 03:08:06;;;;;;;20.85;8.65;;;11.10;99.90;;;9.91;100.00;102187.59;5028956;28;20539;-79
2022/08/07 03:10:32;;;;;;;19.30;8.82;;;11.00;99.90;;;9.90;100.00;102185.88;5028039;28;20082;-78
2022/08/07 03:13:00;;;;;;;19.70;9.45;;;11.00;99.90;;;9.87;100.00;102181.56;5011262;28;20076;-80
2022/08/07 03:15:27;;;;;;;24.88;11.13;;;11.00;99.90;;;9.87;100.00;102186.81;5024311;28;20551;-79
2022/08/07 03:17:59;;;;;;;18.27;9.88;;;11.00;99.90;;;9.84;100.00;102189.50;5025179;28;20052;-78
2022/08/07 03:20:25;;;;;;;24.58;10.15;;;11.00;99.90;;;9.81;100.00;102182.53;5011843;28;20029;-79
2022/08/07 03:22:53;;;;;;;26.00;10.20;;;11.00;99.90;;;9.83;100.00;102180.75;5045086;28;20033;-78
2022/08/07 03:25:19;;;;;;;21.10;9.68;;;11.00;99.90;;;9.80;100.00;102177.28;5008167;28;20030;-80
2022/08/07 03:27:51;;;;;;;16.92;10.00;;;10.90;99.90;;;9.78;100.00;102181.72;5007302;28;20100;-79
2022/08/07 03:30:17;;;;;;;19.52;8.70;;;10.90;99.90;;;9.78;100.00;102182.59;5009167;28;20025;-79
2022/08/07 03:32:47;;;;;;;20.13;9.05;;;10.90;99.90;;;9.80;100.00;102185.19;5029765;28;20025;-78
2022/08/07 03:35:22;;;;;;;15.73;8.48;;;10.90;99.90;;;9.83;100.00;102185.13;5040619;28;20562;-79
2022/08/07 03:37:57;;;;;;;17.48;8.80;;;10.90;99.90;;;9.82;100.00;102184.25;5042266;28;20402;-79
2022/08/07 03:40:25;;;;;;;18.02;8.10;;;10.90;99.90;;;9.83;100.00;102175.47;5009653;28;20069;-78
2022/08/07 03:42:52;;;;;;;23.23;9.35;;;10.90;99.90;;;9.83;100.00;102186.00;5025421;28;20037;-79
2022/08/07 03:45:20;;;;;;;17.15;8.05;;;10.90;99.90;;;9.84;100.00;102182.44;5028980;28;20502;-80
2022/08/07 03:47:51;;;;;;;23.73;3.13;;;10.90;99.90;;;9.82;100.00;102184.25;5026100;28;20029;-79
2022/08/07 03:50:21;;;;;;;96.93;3.03;;;10.90;99.90;;;9.72;100.00;102181.84;5008340;28;20025;-79
2022/08/07 03:52:48;;;;;;;9.40;5.13;;;10.80;99.90;;;9.68;100.00;102174.94;5007222;28;20042;-78
2022/08/07 03:55:19;;;;;;;6.93;2.90;;;10.80;99.90;;;9.64;100.00;102180.22;5028105;28;20448;-78
2022/08/07 03:57:47;;;;;;;3.55;2.38;;;10.70;99.90;;;9.61;100.00;102177.66;5043772;28;20033;-78
2022/08/07 04:00:13;;;;;;;3.08;2.63;;;10.70;99.90;;;9.61;100.00;102188.19;5011032;28;20037;-78
2022/08/07 04:02:41;;;;;;;7.68;2.63;;;10.70;99.90;;;9.60;100.00;102182.94;5023729;28;20040;-80
2022/08/07 04:05:11;;;;;;;2.10;1.75;;;10.70;99.90;;;9.61;100.00;102182.94;5008486;28;20146;-79
2022/08/07 04:07:36;;;;;;;3.85;2.85;;;10.70;99.90;;;9.63;100.00;102185.50;5030471;28;20444;-79
2022/08/07 04:10:04;;;;;;;7.57;4.60;;;10.70;99.90;;;9.68;100.00;102186.31;5023967;28;20025;-78
2022/08/07 04:12:30;;;;;;;10.38;5.55;;;10.70;99.90;;;9.75;100.00;102202.84;5023831;28;20124;-79
2022/08/07 04:15:00;;;;;;;13.63;6.05;;;10.80;99.90;;;9.82;100.00;102199.16;5023644;28;21361;-80
2022/08/07 04:17:28;;;;;;;15.55;5.70;;;10.90;99.90;;;10.03;100.00;102209.25;5009575;28;20059;-79
2022/08/07 04:19:54;;;;;;;10.00;5.03;;;11.80;99.90;;;11.34;100.00;102205.38;5010256;28;20025;-80
2022/08/07 04:22:23;;;;;;;8.82;4.43;;;12.10;99.90;;;11.81;99.88;102214.63;5008029;28;20033;-78
2022/08/07 04:24:54;;;;;;;15.10;7.13;;;13.70;99.90;;;14.19;92.65;102221.00;5024934;28;20060;-79
2022/08/07 04:27:20;;;;;;;14.98;6.05;;;15.30;99.90;;;16.24;82.27;102224.81;5007544;28;20057;-79
2022/08/07 04:29:46;;;;;;;9.30;5.60;;;17.10;99.90;;;18.39;72.02;102239.66;5028314;28;20061;-80
2022/08/07 04:32:12;;;;;;;;;;;17.20;99.90;;;20.46;65.62;102247.81;5013612;28;20124;-79
2022/08/07 04:34:38;;;;;;;8.43;5.40;;;20.20;99.90;;;21.82;58.51;102245.00;5024174;28;19964;-80
2022/08/07 04:37:07;;;;;;;10.35;5.05;;;21.30;99.90;;;22.89;55.59;102244.41;5026119;28;20034;-79
2022/08/07 04:39:34;;;;;;;11.63;6.45;;;22.40;99.90;;;24.25;52.29;102254.50;5026684;28;20099;-78
2022/08/07 04:42:02;;;;;;;10.45;5.70;;;23.40;99.90;;;25.49;49.61;102261.38;5016248;28;20117;-79
2022/08/07 04:44:28;;;;;;;12.32;6.10;;;24.40;99.90;;;26.52;47.21;102274.78;5033753;28;20037;-81
2022/08/07 04:47:52;;;;;;;13.18;5.75;;;25.20;98.70;;;27.68;45.09;102273.09;5013607;28;20521;-80
2022/08/07 04:50:36;;;;;;;12.93;5.57;;;26.40;96.90;;;28.87;42.66;102291.38;4974136;28;20447;-80
2022/08/07 04:53:20;;;;;;;8.93;5.45;;;27.00;95.60;;;29.67;40.87;102300.38;5016274;28;20388;-80
2022/08/07 04:56:04;;;;;;;13.30;5.00;;;27.60;94.10;;;30.46;39.52;102307.47;5034398;28;20025;-79
2022/08/07 04:58:48;;;;;;;13.70;4.50;;;28.30;93.90;;;31.35;38.37;102312.41;5031633;28;20114;-79
2022/08/07 05:01:23;;;;;;;7.38;4.22;;;28.90;92.60;;;32.26;37.11;102319.41;5049716;28;20033;-81
2022/08/07 05:04:05;;;;;;;7.60;4.30;;;29.50;92.00;;;32.92;36.10;102321.78;5035063;28;20147;-80
2022/08/07 05:06:45;;;;;;;7.22;4.13;;;30.20;91.50;;;33.83;35.30;102330.97;5032907;28;20025;-80
2022/08/07 05:09:28;;;;;;;8.90;4.32;;;30.70;90.40;;;34.52;33.51;102326.03;5050516;28;20020;-79
2022/08/07 05:11:55;;;;;;;7.95;4.35;;;31.10;87.30;;;34.58;33.75;102340.84;5047273;28;20025;-80
2022/08/07 05:14:35;;;;;;;10.85;4.32;;;31.40;84.10;;;35.12;32.90;102350.50;5044102;28;20021;-80
2022/08/07 05:17:04;;;;;;;14.45;4.70;;;31.80;84.60;;;35.66;32.34;102360.94;5015126;28;20040;-80
2022/08/07 05:19:39;;;;;;;8.02;3.85;;;32.10;85.30;;;36.34;31.86;102361.13;5050792;28;20097;-80
2022/08/07 05:22:08;;;;;;;5.90;4.00;;;32.70;83.60;;;37.04;31.07;102360.13;5031768;28;20029;-81
2022/08/07 05:24:44;;;;;;;7.47;3.97;;;33.30;82.00;;;37.76;29.81;102367.59;5028963;28;20172;-80
2022/08/07 05:27:17;;;;;;;8.50;4.55;;;33.70;80.90;;;38.16;30.19;102369.44;5029195;28;20802;-81
2022/08/07 05:29:46;;;;;;;9.65;3.88;;;34.10;79.50;;;38.65;28.96;102387.25;5018764;28;20032;-80
2022/08/07 05:32:17;;;;;;;9.10;4.28;;;34.50;77.70;;;39.15;28.15;102392.06;5033892;28;20025;-80
2022/08/07 05:34:48;;;;;;;6.25;3.88;;;34.90;78.20;;;39.50;27.60;102411.72;5030358;28;20480;-81
2022/08/07 05:37:15;;;;;;;8.35;3.88;;;35.20;76.70;;;39.70;27.61;102417.09;5029678;28;20056;-81
2022/08/07 05:39:41;;;;;;;7.78;3.90;;;35.40;75.20;;;39.84;26.90;102428.84;5029652;28;20052;-80
2022/08/07 05:42:07;;;;;;;7.55;4.00;;;35.60;75.20;;;40.08;26.92;102434.56;5029883;28;20035;-80
2022/08/07 05:44:39;;;;;;;12.25;4.13;;;35.70;74.20;;;40.24;26.55;102442.25;5032306;28;20033;-80
2022/08/07 05:47:07;;;;;;;8.52;3.83;;;35.90;73.70;;;40.45;26.39;102445.63;5013792;28;20033;-80
2022/08/07 05:49:33;;;;;;;6.30;3.40;;;36.10;72.80;;;40.65;26.41;102445.38;5011813;28;20041;-81
2022/08/07 05:51:59;;;;;;;10.00;3.95;;;36.40;72.50;;;40.80;26.04;102451.38;5018167;28;20016;-81
2022/08/07 05:54:30;;;;;;;9.50;3.78;;;36.60;72.00;;;41.16;25.88;102441.34;5016287;28;20035;-81
2022/08/07 05:56:57;;;;;;;5.38;3.60;;;36.90;71.20;;;41.48;25.36;102444.66;5013982;28;20029;-80
2022/08/07 05:59:25;;;;;;;7.55;3.80;;;37.10;69.90;;;41.67;24.79;102442.66;5029743;28;20029;-80
2022/08/07 06:01:52;;;;;;;8.13;3.92;;;37.40;68.70;;;41.89;25.07;102429.06;5011162;28;20041;-80
2022/08/07 06:04:23;;;;;;;7.13;3.53;;;37.70;68.70;;;42.07;24.35;102432.81;5017557;28;20040;-81
2022/08/07 06:06:49;;;;;;;4.70;3.08;;;37.90;68.30;;;42.09;24.16;102437.03;5017068;28;20402;-81
2022/08/07 06:09:16;;;;;;;11.35;3.22;;;38.10;67.30;;;42.12;24.12;102428.25;5014463;28;20021;-81
2022/08/07 06:11:44;;;;;;;7.88;3.35;;;38.20;66.90;;;42.21;23.74;102437.84;5027620;28;20033;-81
2022/08/07 06:14:10;;;;;;;7.97;3.55;;;38.40;65.40;;;42.10;23.66;102441.50;5030229;28;20017;-81
2022/08/07 06:16:38;;;;;;;9.63;3.03;;;38.50;65.50;;;42.17;23.82;102433.88;5016796;28;20036;-81
2022/08/07 06:19:05;;;;;;;8.30;2.85;;;38.60;65.00;;;42.22;23.83;102434.00;5029150;28;20040;-80
2022/08/07 06:21:32;;;;;;;8.07;2.78;;;38.80;64.20;;;42.42;23.77;102432.78;5030557;28;20029;-80
2022/08/07 06:23:57;;;;;;;6.03;2.58;;;39.10;63.50;;;42.48;23.20;102437.34;5028942;28;20040;-81
2022/08/07 06:26:24;;;;;;;10.40;2.78;;;39.30;63.10;;;42.35;23.42;102440.34;5011227;28;20029;-80
2022/08/07 06:28:58;;;;;;;7.85;3.40;;;39.40;62.70;;;42.52;23.69;102426.63;5032545;28;20017;-81
2022/08/07 06:31:25;;;;;;;6.55;2.28;;;39.60;60.00;;;42.32;23.18;102427.84;5046660;28;20018;-81
2022/08/07 06:33:51;;;;;;;7.13;2.40;;;39.60;61.50;;;42.16;23.42;102429.44;5029589;28;20112;-80
2022/08/07 06:36:25;;;;;;;5.45;2.28;;;39.70;60.50;;;42.12;23.56;102425.50;5032071;28;20068;-81
2022/08/07 06:38:52;;;;;;;5.65;2.50;;;39.90;61.00;;;42.24;23.27;102428.22;5032492;28;20043;-79
2022/08/07 06:41:42;;;;;;;7.13;2.50;;;40.00;58.10;;;42.06;23.22;102426.47;5048662;28;20068;-81
2022/08/07 06:44:11;;;;;;;8.25;2.90;;;39.90;57.70;;;41.72;23.15;102434.47;5015495;28;20045;-81
2022/08/07 06:46:37;;;;;;;6.53;2.55;;;39.80;59.10;;;41.34;23.50;102426.59;5013780;28;20029;-80
2022/08/07 06:49:04;;;;;;;7.78;2.33;;;39.70;58.00;;;41.12;23.45;102418.81;5015780;28;20572;-80
2022/08/07 06:51:42;;;;;;;6.53;2.47;;;39.80;58.40;;;41.60;23.57;102419.81;5040355;28;20035;-81
2022/08/07 06:54:11;;;;;;;6.18;2.70;;;39.90;55.60;;;41.41;22.97;102427.34;5014074;28;20481;-80
2022/08/07 06:56:49;;;;;;;4.78;2.10;;;39.80;54.60;;;40.98;22.69;102423.72;5028982;28;20112;-81
2022/08/07 06:59:34;;;;;;;7.07;2.20;;;39.50;54.70;;;40.35;23.06;102419.44;5016495;28;20025;-81
2022/08/07 07:02:01;;;;;;;7.43;2.42;;;39.10;54.90;;;39.70;23.93;102417.09;5029670;28;20024;-80
2022/08/07 07:04:30;;;;;;;5.32;2.05;;;38.70;55.80;;;39.24;24.12;102403.66;5032893;28;20052;-81
2022/08/07 07:06:59;;;;;;;6.85;2.10;;;38.80;57.40;;;39.87;23.82;102411.00;5026189;28;20029;-81
2022/08/07 07:09:30;;;;;;;6.35;2.20;;;39.00;55.30;;;39.92;23.64;102398.25;5030706;28;20032;-80
2022/08/07 07:12:05;;;;;;;4.00;1.63;;;39.00;55.50;;;39.73;23.54;102400.09;5033210;28;20024;-80
2022/08/07 07:15:01;;;;;;;6.15;1.88;;;39.20;56.40;;;40.15;23.43;102397.56;5049697;28;20596;-80
2022/08/07 07:17:45;;;;;;;5.70;2.20;;;39.40;55.70;;;40.44;23.41;102397.88;5029815;28;20500;-81
2022/08/07 07:20:25;;;;;;;8.82;1.90;;;39.90;56.70;;;40.71;22.82;102386.47;5028357;28;20136;-81
2022/08/07 07:22:52;;;;;;;4.00;1.55;;;39.80;54.30;;;40.07;23.75;102395.09;5029771;28;20493;-80
2022/08/07 07:25:19;;;;;;;6.47;1.70;;;39.60;53.30;;;39.66;23.55;102396.56;5032769;28;20063;-81
2022/08/07 07:27:57;;;;;;;3.45;1.65;;;39.60;54.80;;;39.71;23.05;102382.91;5013129;28;20064;-80
2022/08/07 07:30:33;;;;;;;5.95;1.70;;;39.50;54.90;;;39.63;24.29;102380.44;5028957;28;20083;-80
2022/08/07 07:33:01;;;;;;;4.78;1.38;;;39.40;54.80;;;39.46;24.28;102371.94;5028298;28;20053;-81
2022/08/07 07:35:31;;;;;;;3.95;1.40;;;39.50;55.20;;;39.47;23.87;102378.28;5033262;28;20036;-81
2022/08/07 07:38:01;;;;;;;7.00;1.80;;;39.60;55.00;;;39.63;24.08;102371.34;5030911;28;20026;-81
2022/08/07 07:40:29;;;;;;;4.20;1.60;;;39.10;53.60;;;38.61;24.47;102357.63;5029633;28;20036;-81
2022/08/07 07:43:05;;;;;;;9.30;1.70;;;38.70;54.70;;;38.05;25.53;102362.69;5009835;28;20029;-80
2022/08/07 07:45:31;;;;;;;7.13;2.03;;;38.20;55.00;;;37.37;26.27;102351.94;5013153;28;20498;-80
2022/08/07 07:48:00;;;;;;;7.35;1.67;;;37.50;56.40;;;36.54;27.30;102346.66;5031504;28;20073;-80
2022/08/07 07:50:31;;;;;;;7.72;1.63;;;37.00;56.40;;;35.91;27.48;102339.38;5029427;28;20081;-80
2022/08/07 07:52:57;;;;;;;5.72;1.77;;;36.50;57.30;;;35.82;27.51;102334.25;5046102;28;20021;-81
2022/08/07 07:55:26;;;;;;;8.82;1.90;;;36.50;57.80;;;36.29;27.27;102329.91;5010887;28;20067;-81
2022/08/07 07:58:01;;;;;;;5.18;1.55;;;36.60;57.80;;;36.25;27.58;102326.72;5030146;28;20030;-80
2022/08/07 08:00:28;;;;;;;5.20;1.60;;;36.80;57.60;;;36.68;26.52;102318.25;5014406;28;20451;-80
2022/08/07 08:03:02;;;;;;;7.63;1.70;;;36.40;57.50;;;35.01;28.35;102313.56;5011546;28;20472;-80
2022/08/07 08:05:28;;;;;;;4.97;1.60;;;35.90;58.30;;;35.56;27.96;102316.56;5009653;28;20061;-81
2022/08/07 08:07:54;;;;;;;11.90;1.65;;;35.50;58.40;;;34.91;29.35;102310.28;5026143;28;20025;-80
2022/08/07 08:10:21;;;;;;;8.93;1.90;;;35.50;58.80;;;35.36;28.04;102310.94;5034594;28;21034;-80
2022/08/07 08:12:48;;;;;;;7.53;1.83;;;35.70;58.90;;;35.74;27.61;102305.94;5034105;28;20032;-80
2022/08/07 08:15:22;;;;;;;10.68;1.73;;;35.90;58.70;;;36.04;27.35;102300.22;5018500;28;20030;-80
2022/08/07 08:17:48;;;;;;;6.55;1.85;;;36.00;58.40;;;35.91;27.72;102306.47;5028664;28;20109;-82
2022/08/07 08:20:16;;;;;;;6.63;2.17;;;36.00;58.60;;;35.96;27.62;102305.88;5034124;28;20432;-81
2022/08/07 08:28:28;;;;;;;6.93;2.20;;;35.60;59.10;;;35.30;28.79;102290.66;5036919;28;20784;-81
2022/08/07 08:31:04;;;;;;;8.07;2.15;;;35.30;58.90;;;35.08;28.60;102294.44;5015921;28;20087;-80
2022/08/07 08:33:33;;;;;;;4.60;2.00;;;34.90;58.80;;;34.42;29.50;102287.19;5018374;28;20446;-81
2022/08/07 08:36:00;;;;;;;10.82;2.58;;;34.50;58.70;;;33.61;30.33;102284.41;5051261;28;20049;-81
2022/08/07 08:38:35;;;;;;;7.07;2.05;;;34.40;60.40;;;33.49;30.38;102286.72;5016340;28;20847;-81
2022/08/07 08:41:30;;;;;;;9.10;2.13;;;33.30;60.00;;;32.41;31.45;102276.75;5034944;28;20029;-81
2022/08/07 08:44:02;;;;;;;7.25;2.17;;;32.40;60.40;;;30.80;32.68;102273.91;5034154;28;21316;-80
2022/08/07 08:46:40;;;;;;;6.68;2.40;;;31.60;63.40;;;30.93;33.60;102275.31;5034019;28;20032;-81
2022/08/07 08:50:18;;;;;;;6.45;2.20;;;31.10;64.60;;;30.52;32.98;102267.03;5016895;28;20033;-80
2022/08/07 08:53:07;;;;;;;6.93;1.80;;;30.30;65.40;;;29.23;35.15;102249.72;4954275;28;20035;-80
2022/08/07 08:55:37;;;;;;;7.75;2.30;;;29.60;65.90;;;28.45;36.15;102252.13;5027114;28;20049;-80
2022/08/07 08:58:15;;;;;;;3.85;2.15;;;29.00;67.20;;;27.78;37.29;102241.44;5018428;28;20025;-79
2022/08/07 09:00:51;;;;;;;8.05;2.53;;;28.40;68.50;;;27.35;37.88;102233.88;5048937;28;20037;-79
2022/08/07 09:03:39;;;;;;;6.30;3.13;;;27.90;69.90;;;26.72;38.16;102240.56;5031006;28;20040;-80
2022/08/07 09:06:30;;;;;;;7.18;2.42;;;27.40;70.10;;;26.35;38.78;102229.50;5030841;28;20365;-79
2022/08/07 09:09:06;;;;;;;5.60;1.77;;;26.90;71.40;;;26.15;39.72;102228.63;5014925;28;20033;-79
2022/08/07 09:11:57;;;;;;;4.70;2.10;;;26.60;70.90;;;25.81;39.46;102228.91;5032370;28;20374;-80
2022/08/07 09:14:43;;;;;;;7.93;2.25;;;26.30;72.70;;;25.42;40.52;102220.59;5018698;23;20109;-79
2022/08/07 09:17:53;;;;;;;5.55;2.10;;;26.00;73.30;;;25.16;42.51;102225.47;5024610;28;20021;-80
2022/08/07 09:20:50;;;;;;;3.88;2.17;;;25.70;76.50;;;25.16;42.74;102223.66;5040039;28;20029;-79
2022/08/07 09:24:10;;;;;;;4.90;1.90;;;25.80;74.40;;;25.31;41.28;102217.94;5027873;28;20029;-79
2022/08/07 09:27:18;;;;;;;10.68;2.75;;;25.60;73.10;;;24.59;41.92;102210.56;5005210;28;20052;-79
2022/08/07 09:30:06;;;;;;;3.95;2.13;;;25.10;75.10;;;23.92;43.04;102207.81;5031918;28;20045;-79
2022/08/07 09:33:27;;;;;;;4.95;1.98;;;24.70;76.30;;;23.72;43.92;102203.13;5024670;28;20037;-78
2022/08/07 09:36:30;;;;;;;8.10;2.50;;;24.50;77.10;;;23.69;43.94;102203.38;5023961;28;20057;-79
2022/08/07 09:39:37;;;;;;;7.85;2.03;;;24.40;78.90;;;23.89;44.43;102196.47;5040362;28;20029;-80
2022/08/07 09:42:30;;;;;;;4.57;1.85;;;24.50;78.80;;;24.06;43.00;102197.75;5041136;28;20033;-79
2022/08/07 09:45:55;;;;;;;5.65;1.95;;;24.60;78.00;;;23.97;43.95;102183.22;5056238;28;20140;-78
2022/08/07 09:48:43;;;;;;;6.20;2.13;;;24.40;78.90;;;23.60;44.96;102185.28;5041170;28;20506;-79
2022/08/07 09:51:54;;;;;;;6.00;2.28;;;24.30;81.70;;;23.63;46.88;102195.78;5024807;28;20538;-80
2022/08/07 09:54:45;;;;;;;5.88;2.30;;;24.10;80.60;;;23.48;45.43;102179.91;5043780;28;20042;-79
2022/08/07 09:57:51;;;;;;;8.13;2.45;;;24.10;80.60;;;23.35;45.83;102184.53;5023809;28;20033;-79
2022/08/07 10:00:28;;;;;;;8.32;2.63;;;23.90;81.50;;;23.41;46.89;102170.63;5025293;28;20041;-79
2022/08/07 10:03:39;;;;;;;4.43;2.10;;;24.00;82.00;;;23.56;47.03;102171.22;5057390;28;20029;-79
2022/08/07 10:07:06;;;;;;;7.22;2.05;;;24.30;81.70;;;24.06;44.68;102173.53;5034056;28;20509;-79
2022/08/07 10:10:34;;;;;;;3.90;1.88;;;24.80;77.10;;;24.73;43.17;102162.63;4967851;28;20053;-79
2022/08/07 10:13:57;;;;;;;12.77;2.38;;;25.30;77.70;;;25.33;42.57;102162.91;4979908;28;20042;-80
2022/08/07 10:16:57;;;;;;;3.97;2.08;;;25.70;78.70;;;25.18;42.87;102159.69;5018718;28;20475;-80
2022/08/07 10:19:52;;;;;;;4.85;1.77;;;25.80;75.60;;;25.23;40.68;102163.88;5021387;28;20058;-79
2022/08/07 10:22:48;;;;;;;3.15;1.70;;;25.90;72.60;;;25.32;40.59;102154.97;5055063;28;20095;-81
2022/08/07 10:25:57;;;;;;;3.92;1.83;;;26.00;74.10;;;25.62;39.41;102167.63;5048372;28;20555;-79
2022/08/07 10:29:09;;;;;;;3.08;1.55;;;26.20;73.10;;;25.89;38.65;102158.94;5037259;28;20044;-79
2022/08/07 10:32:17;;;;;;;3.60;1.92;;;26.60;72.90;;;26.32;39.57;102167.69;5052305;28;20049;-79
2022/08/07 10:35:23;;;;;;;4.13;1.70;;;26.80;72.90;;;26.46;39.83;102161.91;5049958;28;20041;-80
2022/08/07 10:38:43;;;;;;;4.30;2.15;;;27.00;71.70;;;26.77;38.19;102159.94;5029311;28;20043;-81
2022/08/07 10:42:11;;;;;;;3.75;1.70;;;27.30;67.80;;;26.84;35.69;102164.78;5011007;28;20025;-79
2022/08/07 10:45:01;;;;;;;2.13;1.48;;;27.40;69.00;;;26.99;36.16;102164.16;4942319;28;20397;-79
2022/08/07 10:47:48;;;;;;;3.17;1.42;;;27.50;68.30;;;27.01;36.15;102156.78;5045450;28;20025;-79
2022/08/07 10:50:46;;;;;;;9.90;1.77;;;27.60;67.30;;;27.11;35.79;102156.78;5016476;28;20084;-80